Time;durP1;ratioP1;P1;durP2;ratioP2;P2;SDS_P1;SDS_P2;PMS_P1;PMS_P2;Temp;Humidity;BMP_temperature;BMP_pressure;BME280_temperature;BME280_humidity;BME280_pressure;Samples;Min_cycle;Max_cycle;Signal;HPM_P1;HPM_P2
2021/12/04 00:00:22;;;;;;;6.22;4.65;;;15.10;66.60;;;;;;4761246;30;20130;-80
2021/12/04 00:02:51;;;;;;;5.32;4.70;;;15.10;66.50;;;;;;4776436;30;20092;-81
2021/12/04 00:05:18;;;;;;;5.65;4.93;;;15.20;66.40;;;;;;4761491;30;20051;-79
2021/12/04 00:07:44;;;;;;;5.53;4.90;;;15.10;66.10;;;;;;4761295;30;20068;-81
2021/12/04 00:10:17;;;;;;;5.93;5.22;;;15.10;66.20;;;;;;4775976;29;20084;-81
2021/12/04 00:12:43;;;;;;;5.53;4.88;;;15.20;66.30;;;;;;4760357;30;20579;-81
2021/12/04 00:15:09;;;;;;;6.35;5.25;;;15.10;66.20;;;;;;4775850;30;20043;-79
2021/12/04 00:17:40;;;;;;;6.53;5.68;;;15.10;66.30;;;;;;4761389;30;20051;-80
2021/12/04 00:20:13;;;;;;;6.95;5.68;;;15.10;66.40;;;;;;4776413;30;20047;-81
2021/12/04 00:22:39;;;;;;;6.17;5.07;;;15.10;66.60;;;;;;4775976;30;20055;-80
2021/12/04 00:25:06;;;;;;;6.68;5.38;;;15.10;66.50;;;;;;4775679;30;20150;-81
2021/12/04 00:27:35;;;;;;;8.18;5.75;;;15.10;66.60;;;;;;4775647;30;20467;-80
2021/12/04 00:30:01;;;;;;;6.60;5.07;;;15.10;66.60;;;;;;4761149;30;20100;-81
2021/12/04 00:32:31;;;;;;;6.68;5.55;;;15.10;66.40;;;;;;4761004;30;20055;-81
2021/12/04 00:35:11;;;;;;;6.75;5.50;;;15.10;66.60;;;;;;4776191;30;20425;-80
2021/12/04 00:51:12;;;;;;;7.60;5.55;;;15.10;66.50;;;;;;4775316;30;20090;-81
2021/12/04 00:53:38;;;;;;;6.57;4.78;;;15.00;66.70;;;;;;4760403;30;20055;-79
2021/12/04 00:56:04;;;;;;;7.57;5.30;;;15.10;66.70;;;;;;4790668;30;20496;-80
2021/12/04 00:58:30;;;;;;;7.78;5.57;;;15.10;66.90;;;;;;4760580;30;20123;-80
2021/12/04 01:00:56;;;;;;;6.95;5.07;;;15.10;67.10;;;;;;4760285;30;20052;-78
2021/12/04 01:03:21;;;;;;;6.47;5.07;;;15.00;67.00;;;;;;4775319;30;20441;-81
2021/12/04 01:05:47;;;;;;;8.00;5.55;;;15.00;66.60;;;;;;4774866;30;20199;-83
2021/12/04 01:08:13;;;;;;;7.20;5.70;;;15.00;66.60;;;;;;4775073;30;20133;-81
2021/12/04 01:10:39;;;;;;;7.60;5.43;;;15.00;66.70;;;;;;4760264;30;20047;-80
2021/12/04 01:13:10;;;;;;;7.20;5.43;;;15.00;67.00;;;;;;4774866;30;20044;-81
2021/12/04 01:15:41;;;;;;;7.63;5.13;;;15.00;67.10;;;;;;4760028;30;20062;-80
2021/12/04 01:18:07;;;;;;;9.23;6.03;;;15.00;67.10;;;;;;4760640;30;20130;-80
2021/12/04 01:20:32;;;;;;;7.90;5.72;;;15.00;67.10;;;;;;4775011;30;20384;-81
2021/12/04 01:22:58;;;;;;;7.93;5.88;;;15.00;67.10;;;;;;4774629;30;20451;-79
2021/12/04 01:25:24;;;;;;;7.18;5.40;;;15.00;67.10;;;;;;4774804;30;20082;-81
2021/12/04 01:27:50;;;;;;;7.25;5.57;;;15.00;67.10;;;;;;4775232;30;20079;-81
2021/12/04 01:30:15;;;;;;;7.63;5.55;;;15.00;67.10;;;;;;4790568;29;20061;-78
2021/12/04 01:32:41;;;;;;;6.35;5.03;;;15.00;67.00;;;;;;4774514;30;20055;-79
2021/12/04 01:35:08;;;;;;;7.30;5.18;;;15.00;67.10;;;;;;4790695;30;20039;-79
2021/12/04 01:37:34;;;;;;;7.38;5.28;;;15.00;67.10;;;;;;4775219;30;20120;-80
2021/12/04 01:39:59;;;;;;;6.53;5.20;;;15.00;67.00;;;;;;4774799;30;20052;-80
2021/12/04 01:42:25;;;;;;;7.03;5.35;;;14.90;67.00;;;;;;4759870;30;20108;-80
2021/12/04 01:44:51;;;;;;;7.18;5.40;;;15.00;67.20;;;;;;4774665;30;20126;-82
2021/12/04 01:47:20;;;;;;;8.70;5.55;;;14.90;67.10;;;;;;4774637;30;20414;-79
2021/12/04 01:49:50;;;;;;;7.30;5.57;;;14.90;67.10;;;;;;4774725;30;20055;-79
2021/12/04 01:52:19;;;;;;;7.28;5.28;;;14.90;67.10;;;;;;4789617;30;20055;-80
2021/12/04 01:54:46;;;;;;;6.85;5.20;;;14.90;67.00;;;;;;4759431;30;20514;-78
2021/12/04 01:57:15;;;;;;;6.70;5.53;;;14.90;67.10;;;;;;4759390;30;20055;-81
2021/12/04 01:59:42;;;;;;;6.28;5.05;;;14.90;67.00;;;;;;4759710;30;20133;-78
2021/12/04 02:02:08;;;;;;;7.22;5.35;;;14.90;66.90;;;;;;4759279;30;20078;-81
2021/12/04 02:04:33;;;;;;;7.10;5.53;;;14.90;67.10;;;;;;4774151;30;20363;-79
2021/12/04 02:07:04;;;;;;;8.07;6.10;;;14.90;67.00;;;;;;4759165;30;20051;-80
2021/12/04 02:09:36;;;;;;;6.68;5.00;;;14.90;67.00;;;;;;4774444;30;20090;-80
2021/12/04 02:12:06;;;;;;;6.85;5.43;;;14.90;66.90;;;;;;4759197;30;20134;-80
2021/12/04 02:14:37;;;;;;;7.45;5.88;;;14.90;67.50;;;;;;4759185;30;20054;-79
2021/12/04 02:17:03;;;;;;;7.57;5.75;;;14.90;67.00;;;;;;4773889;30;20047;-80
2021/12/04 02:19:29;;;;;;;8.05;5.65;;;14.90;66.90;;;;;;4774305;30;20055;-79
2021/12/04 02:21:55;;;;;;;7.05;5.55;;;14.90;67.00;;;;;;4759582;30;20115;-79
2021/12/04 02:24:21;;;;;;;7.03;5.35;;;14.90;67.00;;;;;;4773827;30;20056;-80
2021/12/04 02:26:48;;;;;;;7.82;5.80;;;14.90;67.10;;;;;;4774061;30;20104;-80
2021/12/04 02:29:14;;;;;;;7.25;5.75;;;14.90;67.00;;;;;;4773749;30;20050;-78
2021/12/04 02:31:39;;;;;;;8.15;5.47;;;14.80;67.00;;;;;;4773944;30;20058;-80
2021/12/04 02:34:06;;;;;;;8.40;5.40;;;14.80;67.00;;;;;;4773995;30;20047;-81
2021/12/04 02:36:35;;;;;;;7.07;5.25;;;14.80;67.00;;;;;;4777524;30;20070;-79
2021/12/04 02:39:02;;;;;;;7.72;5.68;;;14.80;66.80;;;;;;4778170;30;20047;-80
2021/12/04 02:41:28;;;;;;;8.45;6.18;;;14.80;66.80;;;;;;4777412;30;20097;-81
2021/12/04 02:43:53;;;;;;;6.72;5.47;;;14.90;66.90;;;;;;4762607;30;20082;-79
2021/12/04 02:46:19;;;;;;;6.82;5.18;;;14.80;67.40;;;;;;4763216;30;20083;-79
2021/12/04 02:48:47;;;;;;;7.55;5.85;;;14.80;66.80;;;;;;4777223;30;20048;-80
2021/12/04 02:51:15;;;;;;;7.80;5.25;;;14.80;66.80;;;;;;4777631;30;20131;-79
2021/12/04 02:53:41;;;;;;;8.57;6.22;;;14.80;67.40;;;;;;4762584;30;20062;-79
2021/12/04 02:56:07;;;;;;;7.07;5.47;;;14.80;66.70;;;;;;4792825;30;20470;-80
2021/12/04 02:58:36;;;;;;;7.45;5.53;;;14.80;66.70;;;;;;4777782;30;20048;-79
2021/12/04 03:01:03;;;;;;;7.53;5.47;;;14.80;66.80;;;;;;4762151;30;20077;-79
2021/12/04 03:03:31;;;;;;;6.85;5.68;;;14.80;66.90;;;;;;4777567;30;20067;-79
2021/12/04 03:05:57;;;;;;;8.27;5.63;;;14.80;66.90;;;;;;4777240;30;20051;-81
2021/12/04 03:08:24;;;;;;;7.47;5.47;;;14.80;66.80;;;;;;4777420;30;20517;-80
2021/12/04 03:10:50;;;;;;;6.95;5.22;;;14.80;66.80;;;;;;4762845;30;20523;-79
2021/12/04 03:13:19;;;;;;;7.47;5.53;;;14.80;66.80;;;;;;4776709;30;20066;-79
2021/12/04 03:15:48;;;;;;;7.18;5.90;;;14.80;66.70;;;;;;4792825;30;20047;-80
2021/12/04 03:18:14;;;;;;;6.22;4.75;;;14.80;66.60;;;;;;4762279;30;20043;-81
2021/12/04 03:20:46;;;;;;;6.68;5.22;;;14.80;66.80;;;;;;4792945;30;20451;-79
2021/12/04 03:23:26;;;;;;;7.10;5.45;;;14.80;66.80;;;;;;4776498;30;20127;-79
2021/12/04 03:25:54;;;;;;;6.28;4.90;;;14.70;66.90;;;;;;4776820;30;20117;-82
2021/12/04 03:28:20;;;;;;;7.60;4.82;;;14.70;66.90;;;;;;4776478;30;20062;-80
2021/12/04 03:30:52;;;;;;;7.18;5.75;;;14.70;66.90;;;;;;4777452;30;20047;-80
2021/12/04 03:41:17;;;;;;;;;;;14.70;66.80;;;;;;4776858;30;20467;-80
2021/12/04 03:43:43;;;;;;;7.35;5.50;;;14.70;66.70;;;;;;4792810;30;19981;-80
2021/12/04 03:46:14;;;;;;;7.22;5.28;;;14.70;66.80;;;;;;4776970;30;20165;-81
2021/12/04 03:51:09;;;;;;;6.97;5.15;;;14.70;66.70;;;;;;4792308;30;20043;-79
2021/12/04 03:53:36;;;;;;;7.60;4.90;;;14.70;66.70;;;;;;4776290;30;20467;-79
2021/12/04 03:56:03;;;;;;;6.97;5.15;;;14.70;66.70;;;;;;4761419;30;20047;-79
2021/12/04 03:58:29;;;;;;;6.55;5.38;;;14.70;66.70;;;;;;4776174;30;20143;-79
2021/12/04 04:00:55;;;;;;;6.95;4.93;;;14.60;66.60;;;;;;4761208;30;20075;-81
2021/12/04 04:03:21;;;;;;;6.18;5.03;;;14.70;66.60;;;;;;4787527;30;20421;-80
2021/12/04 04:05:47;;;;;;;7.32;5.40;;;14.60;66.70;;;;;;4776111;30;20457;-79
2021/12/04 04:08:14;;;;;;;7.63;5.57;;;14.60;66.60;;;;;;4775988;30;20120;-80
2021/12/04 04:10:42;;;;;;;6.78;5.75;;;14.70;66.60;;;;;;4761266;30;20127;-79
2021/12/04 04:13:11;;;;;;;6.95;4.95;;;14.60;66.70;;;;;;4761252;30;20079;-81
2021/12/04 04:15:39;;;;;;;6.63;5.22;;;14.70;66.80;;;;;;4775802;30;20067;-80
2021/12/04 04:18:05;;;;;;;6.40;5.10;;;14.60;66.70;;;;;;4761262;30;20031;-82
2021/12/04 04:20:31;;;;;;;7.50;5.28;;;14.60;66.80;;;;;;4776099;30;20048;-80
2021/12/04 04:22:57;;;;;;;7.38;5.00;;;14.70;66.80;;;;;;4775941;30;20130;-80
2021/12/04 04:25:23;;;;;;;6.93;4.90;;;14.60;66.60;;;;;;4775873;30;20134;-80
2021/12/04 04:27:49;;;;;;;6.88;5.22;;;14.60;66.70;;;;;;4761095;30;20058;-78
2021/12/04 04:30:18;;;;;;;7.25;5.05;;;14.60;66.70;;;;;;4761093;30;20055;-80
2021/12/04 04:32:48;;;;;;;5.80;4.75;;;14.60;66.70;;;;;;4775676;30;20055;-79
2021/12/04 04:35:17;;;;;;;6.38;4.82;;;14.60;66.70;;;;;;4790686;30;20065;-80
2021/12/04 04:38:10;;;;;;;6.10;4.68;;;14.60;66.70;;;;;;4775949;30;20047;-79
2021/12/04 04:59:59;;;;;;;7.03;5.22;;;14.50;66.60;;;;;;4775852;30;20130;-78
2021/12/04 05:13:17;;;;;;;8.20;5.25;;;14.50;66.60;;;;;;4774898;30;20047;-81
2021/12/04 05:15:56;;;;;;;5.97;4.65;;;14.50;66.60;;;;;;4775001;30;20371;-82
2021/12/04 05:21:04;;;;;;;7.88;4.97;;;14.50;66.60;;;;;;4774665;30;20051;-80
2021/12/04 05:23:34;;;;;;;6.55;4.35;;;14.50;66.60;;;;;;4760430;30;20480;-80
2021/12/04 05:26:02;;;;;;;6.15;4.63;;;14.50;66.40;;;;;;4774730;30;20128;-83
2021/12/04 05:28:28;;;;;;;8.75;5.47;;;14.50;66.60;;;;;;4774688;30;20055;-78
2021/12/04 05:30:55;;;;;;;6.20;4.55;;;14.50;66.60;;;;;;4790266;30;20050;-80
2021/12/04 05:33:20;;;;;;;6.50;4.50;;;14.50;66.60;;;;;;4774869;30;20052;-79
2021/12/04 05:35:48;;;;;;;5.45;4.60;;;14.50;66.70;;;;;;4774945;30;20123;-79
2021/12/04 05:38:17;;;;;;;6.45;4.35;;;14.50;66.80;;;;;;4790863;30;20063;-80
2021/12/04 05:40:43;;;;;;;6.82;4.65;;;14.50;66.90;;;;;;4790379;30;20460;-80
2021/12/04 05:43:10;;;;;;;5.82;4.45;;;14.50;66.80;;;;;;4774276;30;20058;-82
2021/12/04 05:45:43;;;;;;;6.80;4.95;;;14.50;67.20;;;;;;4774655;30;20054;-78
2021/12/04 05:48:31;;;;;;;7.22;4.85;;;14.50;66.60;;;;;;4775268;30;20368;-80
2021/12/04 05:56:31;;;;;;;9.43;6.60;;;14.40;66.40;;;;;;4771146;30;20107;-81
2021/12/04 05:58:58;;;;;;;9.75;6.88;;;14.40;66.50;;;;;;4774742;30;20189;-79
2021/12/04 06:01:26;;;;;;;7.60;5.60;;;14.40;66.50;;;;;;4774280;30;20043;-80
2021/12/04 06:03:54;;;;;;;14.13;9.68;;;14.40;66.20;;;;;;4759156;30;20087;-80
2021/12/04 06:06:20;;;;;;;21.05;16.88;;;14.40;65.70;;;;;;4759488;30;20460;-79
2021/12/04 06:31:56;;;;;;;26.08;17.15;;;13.00;61.90;;;;;;4664056;30;20050;-77
2021/12/04 06:34:22;;;;;;;25.63;16.52;;;12.80;62.70;;;;;;4710465;30;20063;-75
2021/12/04 06:36:48;;;;;;;29.63;14.98;;;12.80;63.40;;;;;;4773988;30;20528;-75
2021/12/04 06:39:13;;;;;;;28.23;14.55;;;12.80;63.60;;;;;;4773622;30;20091;-78
2021/12/04 06:41:39;;;;;;;28.83;13.90;;;13.00;63.80;;;;;;4773950;30;20128;-76
2021/12/04 06:44:05;;;;;;;25.10;12.73;;;13.10;63.80;;;;;;4774851;30;20052;-80
2021/12/04 06:46:35;;;;;;;25.80;11.80;;;13.40;63.90;;;;;;4758811;30;20276;-75
2021/12/04 06:49:15;;;;;;;22.55;11.55;;;13.70;64.10;;;;;;4772271;30;20126;-77
2021/12/04 06:51:46;;;;;;;22.85;10.95;;;14.00;63.50;;;;;;4770879;30;20051;-72
2021/12/04 06:54:25;;;;;;;22.85;10.23;;;14.30;63.10;;;;;;4780703;30;20090;-73
2021/12/04 06:56:50;;;;;;;22.98;9.05;;;14.50;63.30;;;;;;4774343;30;20059;-78
2021/12/04 06:59:23;;;;;;;35.10;12.00;;;14.70;63.10;;;;;;4774040;30;20074;-80
2021/12/04 07:01:49;;;;;;;24.33;9.53;;;14.90;63.60;;;;;;4789693;30;20408;-81
2021/12/04 07:04:17;;;;;;;21.80;8.70;;;15.00;63.40;;;;;;4789498;30;20126;-75
2021/12/04 07:06:45;;;;;;;18.30;7.38;;;15.20;63.40;;;;;;4788536;30;20151;-75
2021/12/04 07:09:11;;;;;;;20.48;7.70;;;15.30;63.60;;;;;;4774291;30;20065;-78
2021/12/04 07:11:37;;;;;;;19.88;7.68;;;15.30;63.80;;;;;;4773721;30;20055;-78
2021/12/04 07:14:03;;;;;;;16.98;8.18;;;15.40;64.30;;;;;;4788735;30;20102;-76
2021/12/04 07:16:29;;;;;;;19.48;8.23;;;15.40;64.90;;;;;;4773731;30;20380;-73
2021/12/04 07:18:55;;;;;;;22.27;9.82;;;15.40;63.70;;;;;;4789294;30;20047;-74
2021/12/04 07:21:21;;;;;;;21.08;8.85;;;15.40;63.10;;;;;;4791430;29;20058;-78
2021/12/04 07:23:47;;;;;;;18.23;8.23;;;15.50;63.30;;;;;;4792729;30;20108;-76
2021/12/04 07:26:13;;;;;;;21.33;8.65;;;15.50;62.90;;;;;;4792590;30;20047;-77
2021/12/04 07:28:38;;;;;;;17.65;7.95;;;15.60;63.50;;;;;;4792829;30;20058;-78
2021/12/04 07:31:04;;;;;;;20.70;8.45;;;15.60;63.50;;;;;;4792068;30;20047;-77
2021/12/04 07:33:31;;;;;;;18.55;7.63;;;15.70;63.00;;;;;;4793064;30;20379;-72
2021/12/04 07:36:00;;;;;;;11.63;7.32;;;15.70;62.80;;;;;;4792512;30;20054;-79
2021/12/04 07:38:27;;;;;;;16.92;7.40;;;15.80;62.90;;;;;;4776443;30;20074;-79
2021/12/04 07:40:53;;;;;;;13.70;6.70;;;15.80;63.00;;;;;;4792458;30;20078;-76
2021/12/04 07:43:19;;;;;;;11.32;6.13;;;15.90;63.00;;;;;;4792715;30;20051;-75
2021/12/04 07:45:45;;;;;;;14.60;6.40;;;15.90;63.20;;;;;;4792789;30;20221;-77
2021/12/04 07:48:10;;;;;;;13.10;7.45;;;16.00;63.50;;;;;;4792359;30;20070;-75
2021/12/04 07:50:37;;;;;;;15.68;5.45;;;16.00;63.30;;;;;;4792327;30;20090;-76
2021/12/04 07:53:03;;;;;;;18.67;6.63;;;16.00;63.50;;;;;;4792550;30;20367;-77
2021/12/04 07:55:30;;;;;;;18.88;6.25;;;16.10;63.40;;;;;;4792676;30;20056;-74
2021/12/04 07:57:55;;;;;;;19.45;6.50;;;16.20;63.20;;;;;;4792132;30;20051;-76
2021/12/04 08:00:22;;;;;;;17.45;5.68;;;16.20;63.40;;;;;;4791206;29;20127;-81
2021/12/04 08:02:48;;;;;;;17.45;5.70;;;16.30;63.30;;;;;;4792209;30;20051;-78
2021/12/04 08:05:16;;;;;;;18.63;5.68;;;16.30;63.20;;;;;;4775982;30;20529;-76
2021/12/04 08:07:42;;;;;;;16.15;5.38;;;16.30;63.20;;;;;;4791855;30;20054;-76
2021/12/04 08:10:12;;;;;;;23.58;6.03;;;16.20;62.60;;;;;;4776577;30;20071;-79
2021/12/04 08:12:38;;;;;;;20.58;6.20;;;16.20;63.20;;;;;;4776316;30;20063;-77
2021/12/04 08:15:06;;;;;;;18.65;5.82;;;16.30;63.30;;;;;;4791842;30;20074;-76
2021/12/04 08:17:32;;;;;;;17.60;5.78;;;16.40;63.30;;;;;;4791786;30;20051;-76
2021/12/04 08:19:58;;;;;;;20.25;5.95;;;16.40;63.40;;;;;;4791878;30;20055;-76
2021/12/04 08:22:24;;;;;;;16.23;5.43;;;16.40;63.30;;;;;;4791918;30;20054;-75
2021/12/04 08:24:50;;;;;;;16.33;5.28;;;16.50;63.20;;;;;;4775791;30;20088;-78
2021/12/04 08:27:17;;;;;;;23.05;5.40;;;16.50;63.40;;;;;;4775851;30;20051;-76
2021/12/04 08:29:43;;;;;;;19.67;6.13;;;16.50;63.50;;;;;;4791808;30;20051;-77
2021/12/04 08:32:09;;;;;;;22.95;6.00;;;16.50;63.40;;;;;;4790567;29;20092;-76
2021/12/04 08:34:36;;;;;;;21.80;5.55;;;16.50;63.50;;;;;;4790836;30;20372;-79
2021/12/04 08:37:03;;;;;;;31.33;6.38;;;16.50;63.50;;;;;;4757132;30;20349;-78
2021/12/04 08:39:30;;;;;;;15.25;6.30;;;16.50;63.50;;;;;;4756827;30;20506;-79
2021/12/04 08:41:56;;;;;;;22.00;8.18;;;16.60;62.80;;;;;;4756935;30;20095;-77
2021/12/04 08:44:22;;;;;;;31.10;8.55;;;16.60;62.20;;;;;;4771642;30;20446;-79
2021/12/04 08:46:48;;;;;;;29.80;8.85;;;16.60;61.00;;;;;;4742079;30;20151;-77
2021/12/04 08:49:15;;;;;;;28.63;8.18;;;16.60;60.60;;;;;;4741931;30;20066;-79
2021/12/04 08:51:44;;;;;;;21.88;8.27;;;16.60;60.70;;;;;;4741715;30;20070;-81
2021/12/04 08:54:10;;;;;;;37.08;9.00;;;16.60;60.70;;;;;;4756707;30;20059;-79
2021/12/04 08:56:36;;;;;;;35.38;8.93;;;16.70;60.40;;;;;;4756613;30;20136;-81
2021/12/04 08:59:05;;;;;;;54.08;11.10;;;16.70;60.40;;;;;;4756419;30;20081;-78
2021/12/04 09:01:34;;;;;;;55.00;10.80;;;16.60;60.30;;;;;;4756725;30;20059;-78
2021/12/04 09:04:06;;;;;;;47.28;10.48;;;16.70;60.80;;;;;;4756723;30;20070;-78
2021/12/04 09:06:33;;;;;;;46.28;9.38;;;16.70;60.70;;;;;;4741481;30;20059;-77
2021/12/04 09:08:59;;;;;;;38.78;10.18;;;16.70;61.10;;;;;;4759046;30;20055;-78
2021/12/04 09:11:33;;;;;;;38.92;10.00;;;16.70;60.60;;;;;;4775446;30;20055;-78
2021/12/04 09:14:01;;;;;;;28.52;9.25;;;16.70;59.40;;;;;;4791361;30;20360;-78
2021/12/04 09:16:30;;;;;;;31.80;8.88;;;16.80;59.50;;;;;;4774927;30;20541;-78
2021/12/04 09:18:56;;;;;;;29.75;7.95;;;16.80;59.60;;;;;;4774955;30;20043;-79
2021/12/04 09:21:23;;;;;;;27.35;7.70;;;16.80;59.70;;;;;;4790857;30;20061;-78
2021/12/04 09:23:54;;;;;;;27.83;7.22;;;16.80;59.70;;;;;;4790161;30;20055;-78
2021/12/04 09:26:50;;;;;;;25.88;7.82;;;16.90;59.90;;;;;;4775230;30;20059;-79
2021/12/04 09:32:07;;;;;;;23.00;6.80;;;16.90;59.70;;;;;;4790529;30;20134;-76
2021/12/04 10:34:41;;;;;;;11.02;3.70;;;16.80;60.50;;;;;;4789582;30;20063;-74
2021/12/04 10:37:10;;;;;;;15.43;4.93;;;16.80;60.10;;;;;;4789977;30;20059;-75
2021/12/04 10:39:36;;;;;;;13.50;4.97;;;16.80;60.30;;;;;;4772219;30;20476;-74
2021/12/04 10:42:09;;;;;;;13.50;5.60;;;16.90;59.80;;;;;;4771708;30;20123;-74
2021/12/04 10:44:41;;;;;;;10.88;5.82;;;16.90;59.30;;;;;;4770577;30;20095;-76
2021/12/04 10:47:15;;;;;;;11.50;6.65;;;16.90;58.70;;;;;;4788923;30;20387;-75
2021/12/04 10:52:59;;;;;;;13.90;6.55;;;16.90;58.10;;;;;;4784561;29;20138;-75
2021/12/04 10:58:35;;;;;;;11.00;5.90;;;16.80;58.00;;;;;;4775684;30;20070;-76
2021/12/04 11:03:38;;;;;;;9.90;4.93;;;16.70;58.10;;;;;;4774425;30;20110;-74
2021/12/04 11:06:31;;;;;;;9.50;4.55;;;16.70;58.40;;;;;;4775372;30;20062;-75
2021/12/04 11:42:04;;;;;;;5.85;3.53;;;16.20;59.90;;;;;;4773755;30;20067;-73
2021/12/04 11:44:44;;;;;;;5.60;3.65;;;16.10;59.90;;;;;;4774321;30;20095;-73
2021/12/04 11:47:10;;;;;;;5.85;3.25;;;16.00;59.80;;;;;;4774601;30;20052;-73
2021/12/04 11:49:36;;;;;;;7.72;3.15;;;16.10;60.00;;;;;;4774825;30;20091;-73
2021/12/04 11:52:21;;;;;;;6.22;3.72;;;16.00;60.00;;;;;;4758800;30;20372;-74
2021/12/04 11:54:48;;;;;;;5.20;3.30;;;16.00;59.80;;;;;;4774533;30;20066;-74
2021/12/04 11:57:16;;;;;;;6.88;4.10;;;16.00;60.10;;;;;;4758757;30;20102;-76
2021/12/04 11:59:43;;;;;;;7.72;3.78;;;15.90;60.20;;;;;;4758587;30;20145;-75
2021/12/04 12:02:17;;;;;;;5.15;3.53;;;15.90;60.20;;;;;;4773436;30;20059;-73
2021/12/04 12:04:51;;;;;;;5.57;3.13;;;15.90;60.30;;;;;;4774534;30;20051;-76
2021/12/04 12:07:23;;;;;;;5.82;3.75;;;15.90;60.30;;;;;;4758442;30;20134;-75
2021/12/04 12:10:05;;;;;;;7.18;3.95;;;15.90;60.50;;;;;;4774085;30;20089;-76
2021/12/04 12:12:34;;;;;;;4.85;3.50;;;15.90;60.40;;;;;;4758796;30;20091;-74
2021/12/04 12:15:04;;;;;;;6.75;3.92;;;15.80;60.60;;;;;;4773176;30;20070;-73
2021/12/04 12:17:37;;;;;;;6.15;4.05;;;15.80;60.60;;;;;;4773709;30;20561;-74
2021/12/04 12:20:09;;;;;;;6.45;3.63;;;15.80;60.60;;;;;;4758414;30;20051;-74
2021/12/04 12:36:14;;;;;;;6.00;4.15;;;15.80;60.70;;;;;;4773488;30;20494;-74
2021/12/04 12:38:49;;;;;;;5.90;4.05;;;15.80;60.60;;;;;;4757962;30;20064;-74
2021/12/04 12:41:40;;;;;;;4.97;3.60;;;15.90;60.70;;;;;;4773729;30;20060;-74
2021/12/04 12:44:05;;;;;;;5.25;3.90;;;15.80;60.60;;;;;;4772758;30;20480;-76
2021/12/04 12:46:43;;;;;;;5.78;3.78;;;15.80;60.60;;;;;;4758018;30;20064;-74
2021/12/04 12:49:24;;;;;;;5.20;3.85;;;15.80;60.50;;;;;;4773407;30;20059;-74
2021/12/04 12:51:56;;;;;;;5.55;3.53;;;15.90;60.50;;;;;;4772793;30;20388;-74
2021/12/04 12:54:38;;;;;;;6.70;4.65;;;15.80;60.40;;;;;;4773758;30;20070;-76
2021/12/04 12:57:26;;;;;;;7.15;4.20;;;15.80;60.40;;;;;;4772953;30;20066;-74
2021/12/04 13:14:09;;;;;;;6.20;3.60;;;15.80;60.50;;;;;;4772662;30;20376;-73
2021/12/04 13:16:35;;;;;;;5.00;3.70;;;15.80;60.60;;;;;;4772928;30;20051;-73
2021/12/04 13:19:06;;;;;;;4.85;3.72;;;15.70;60.60;;;;;;4757049;30;20094;-74
2021/12/04 13:21:39;;;;;;;6.68;4.53;;;15.70;60.70;;;;;;4757443;30;20487;-74
2021/12/04 13:24:06;;;;;;;5.85;3.63;;;15.80;60.90;;;;;;4757871;30;20146;-74
2021/12/04 13:26:36;;;;;;;6.10;4.05;;;15.70;60.90;;;;;;4772934;30;20051;-75
2021/12/04 13:29:04;;;;;;;6.72;4.28;;;15.70;61.00;;;;;;4773165;30;20138;-73
2021/12/04 13:31:30;;;;;;;5.00;3.65;;;15.70;61.10;;;;;;4759232;30;20158;-76
2021/12/04 13:34:05;;;;;;;6.78;4.07;;;15.70;61.10;;;;;;4774415;30;20051;-76
2021/12/04 13:36:32;;;;;;;9.95;6.38;;;15.60;61.10;;;;;;4759766;30;20144;-75
2021/12/04 13:39:03;;;;;;;14.73;7.63;;;15.70;60.50;;;;;;4789525;30;20142;-76
2021/12/04 13:41:30;;;;;;;8.82;5.70;;;15.60;60.20;;;;;;4790057;29;20063;-74
2021/12/04 13:43:58;;;;;;;13.73;6.72;;;15.60;60.20;;;;;;4789706;30;20047;-74
2021/12/04 13:46:24;;;;;;;13.95;5.57;;;15.60;60.40;;;;;;4790440;30;20090;-74
2021/12/04 13:48:51;;;;;;;14.02;4.88;;;15.60;60.30;;;;;;4790426;30;20078;-74
2021/12/04 13:51:18;;;;;;;12.60;5.20;;;15.50;60.20;;;;;;4774410;30;20055;-74
2021/12/04 13:53:46;;;;;;;16.02;5.07;;;15.50;60.40;;;;;;4774204;30;20052;-74
2021/12/04 13:56:19;;;;;;;13.98;5.07;;;15.50;60.60;;;;;;4790118;30;20051;-75
2021/12/04 13:58:53;;;;;;;13.00;5.07;;;15.50;60.80;;;;;;4790312;30;20055;-76
2021/12/04 14:01:19;;;;;;;12.45;4.90;;;15.50;61.00;;;;;;4789233;30;20112;-73
2021/12/04 14:03:47;;;;;;;11.07;4.82;;;15.50;61.20;;;;;;4790108;30;20090;-74
2021/12/04 14:06:18;;;;;;;13.32;5.15;;;15.50;61.30;;;;;;4774323;30;20055;-75
2021/12/04 14:08:59;;;;;;;12.70;5.22;;;15.50;61.40;;;;;;4788780;30;20059;-77
2021/12/04 14:11:36;;;;;;;11.70;5.30;;;15.50;61.60;;;;;;4774382;30;20062;-74
2021/12/04 14:14:22;;;;;;;14.95;5.38;;;15.50;61.70;;;;;;4774156;30;20469;-76
2021/12/04 14:16:53;;;;;;;14.98;6.53;;;15.40;60.70;;;;;;4790162;30;20059;-74
2021/12/04 14:19:25;;;;;;;10.02;4.30;;;15.20;61.90;;;;;;4790457;30;20116;-74
2021/12/04 14:22:01;;;;;;;11.10;4.07;;;15.00;62.60;;;;;;4790094;30;20111;-73
2021/12/04 14:24:59;;;;;;;15.18;4.20;;;15.00;63.10;;;;;;4774807;30;20067;-73
2021/12/04 14:27:30;;;;;;;11.48;4.05;;;15.00;63.50;;;;;;4764120;30;20066;-74
2021/12/04 14:29:59;;;;;;;9.10;3.90;;;14.90;63.70;;;;;;4773285;30;20123;-73
2021/12/04 14:32:31;;;;;;;7.35;3.60;;;14.80;63.60;;;;;;4774276;30;20087;-72
2021/12/04 14:35:02;;;;;;;11.07;3.65;;;14.90;63.70;;;;;;4773625;30;20103;-73
2021/12/04 14:37:34;;;;;;;9.63;3.25;;;14.80;63.70;;;;;;4774632;30;20479;-74
2021/12/04 14:40:00;;;;;;;11.05;3.80;;;14.80;63.90;;;;;;4774386;30;20071;-73
2021/12/04 14:42:29;;;;;;;6.10;3.28;;;14.80;64.10;;;;;;4774729;30;20352;-75
2021/12/04 14:45:02;;;;;;;7.38;3.35;;;14.90;64.20;;;;;;4774005;30;20098;-74
2021/12/04 14:47:33;;;;;;;5.75;3.22;;;14.90;64.00;;;;;;4774016;30;20111;-74
2021/12/04 14:50:00;;;;;;;7.20;2.80;;;14.90;64.00;;;;;;4789601;30;20058;-73
2021/12/04 14:52:29;;;;;;;6.85;3.28;;;15.00;64.10;;;;;;4759384;30;20055;-74
2021/12/04 14:54:55;;;;;;;7.75;3.17;;;15.00;64.00;;;;;;4789176;30;20384;-73
2021/12/04 14:57:24;;;;;;;7.70;3.15;;;15.00;63.90;;;;;;4789550;30;20047;-74
2021/12/04 15:00:17;;;;;;;5.78;2.83;;;15.10;64.00;;;;;;4789469;30;20130;-75
2021/12/04 15:03:09;;;;;;;7.60;2.90;;;15.10;64.00;;;;;;4773826;30;20523;-74
2021/12/04 15:05:42;;;;;;;5.97;2.78;;;15.20;63.80;;;;;;4759179;30;20047;-73
2021/12/04 15:08:09;;;;;;;5.72;2.80;;;15.20;63.70;;;;;;4759052;30;20116;-75
2021/12/04 15:10:36;;;;;;;6.43;3.05;;;15.20;63.80;;;;;;4773570;30;20051;-73
2021/12/04 15:13:02;;;;;;;4.55;2.65;;;15.20;63.80;;;;;;4773906;30;20511;-74
2021/12/04 15:15:31;;;;;;;7.00;2.85;;;15.20;63.80;;;;;;4789353;30;20143;-74
2021/12/04 15:18:00;;;;;;;5.93;3.10;;;15.20;63.70;;;;;;4773846;30;20043;-75
2021/12/04 15:20:32;;;;;;;7.97;3.00;;;15.30;63.80;;;;;;4773800;30;20059;-73
2021/12/04 15:23:07;;;;;;;10.43;3.50;;;15.20;63.50;;;;;;4773737;30;20055;-72
2021/12/04 15:25:36;;;;;;;7.78;3.00;;;15.30;64.20;;;;;;4774287;30;20372;-73
2021/12/04 15:28:17;;;;;;;7.20;3.13;;;15.50;63.80;;;;;;4773853;30;20062;-74
2021/12/04 15:30:45;;;;;;;5.35;2.88;;;15.60;63.50;;;;;;4789260;30;20059;-76
2021/12/04 15:33:42;;;;;;;5.40;2.63;;;15.60;62.90;;;;;;4773448;30;20138;-74
2021/12/04 15:36:20;;;;;;;5.60;2.70;;;15.70;62.70;;;;;;4778290;30;20066;-72
2021/12/04 15:38:52;;;;;;;10.30;4.47;;;15.80;62.50;;;;;;4773738;30;20479;-75
2021/12/04 15:41:33;;;;;;;7.07;2.92;;;15.60;63.70;;;;;;4789630;29;20051;-74
2021/12/04 15:46:41;;;;;;;12.50;3.92;;;15.80;63.10;;;;;;4775860;30;20055;-76
2021/12/04 15:49:31;;;;;;;22.05;4.95;;;15.80;62.90;;;;;;4792308;30;20066;-74
2021/12/04 15:54:57;;;;;;;17.98;4.80;;;15.90;62.60;;;;;;4776354;30;20063;-73
2021/12/04 15:57:23;;;;;;;12.75;4.68;;;15.90;62.60;;;;;;4791393;29;20066;-73
2021/12/04 15:59:52;;;;;;;16.20;5.05;;;16.00;62.70;;;;;;4775056;30;20055;-72
2021/12/04 16:02:22;;;;;;;20.85;5.95;;;16.00;62.50;;;;;;4792158;30;20051;-73
2021/12/04 16:04:50;;;;;;;15.07;6.05;;;16.00;62.50;;;;;;4776200;30;20182;-73
2021/12/04 16:07:28;;;;;;;24.23;5.70;;;16.00;62.60;;;;;;4792424;30;20059;-72
2021/12/04 16:09:58;;;;;;;18.45;5.97;;;16.00;63.90;;;;;;4775897;30;20054;-75
2021/12/04 16:12:24;;;;;;;20.27;6.53;;;16.00;63.20;;;;;;4791863;29;20143;-73
2021/12/04 16:14:55;;;;;;;18.98;6.63;;;16.00;63.30;;;;;;4791888;30;20101;-72
2021/12/04 16:17:21;;;;;;;14.32;6.50;;;16.00;63.10;;;;;;4776732;30;20139;-74
2021/12/04 16:19:52;;;;;;;20.02;6.18;;;16.00;63.00;;;;;;4776439;30;20468;-77
2021/12/04 16:22:18;;;;;;;17.38;6.53;;;16.00;63.00;;;;;;4791897;30;20200;-75
2021/12/04 16:24:48;;;;;;;12.93;6.35;;;16.00;62.90;;;;;;4791856;30;20511;-74
2021/12/04 16:27:26;;;;;;;14.35;6.43;;;16.10;63.20;;;;;;4792204;30;20333;-74
2021/12/04 16:30:11;;;;;;;20.08;6.07;;;16.10;63.40;;;;;;4791945;30;20415;-74
2021/12/04 16:32:57;;;;;;;12.05;5.82;;;16.10;63.50;;;;;;4775936;30;20051;-76
2021/12/04 16:37:55;;;;;;;20.52;6.28;;;16.20;63.70;;;;;;4773865;30;20468;-76
2021/12/04 16:40:34;;;;;;;12.32;5.30;;;16.20;63.80;;;;;;4772004;30;20055;-74